Time;durP1;ratioP1;P1;durP2;ratioP2;P2;SDS_P1;SDS_P2;PMS_P1;PMS_P2;Temp;Humidity;BMP_temperature;BMP_pressure;BME280_temperature;BME280_humidity;BME280_pressure;Samples;Min_cycle;Max_cycle;Signal;HPM_P1;HPM_P2
2022/09/25 00:00:47;;;;;;;15.10;12.83;;;;;;;12.80;100.00;97759.72;5114877;28;20252;-64
2022/09/25 00:03:15;;;;;;;16.40;13.67;;;;;;;12.82;100.00;97757.75;5113508;28;20256;-64
2022/09/25 00:05:44;;;;;;;15.80;14.07;;;;;;;12.80;100.00;97758.84;5114917;28;20261;-64
2022/09/25 00:08:14;;;;;;;15.37;13.07;;;;;;;12.76;100.00;97762.72;5114921;28;20229;-64
2022/09/25 00:10:41;;;;;;;16.30;13.10;;;;;;;12.71;100.00;97752.50;5102209;28;20257;-64
2022/09/25 00:13:08;;;;;;;15.97;13.47;;;;;;;12.66;100.00;97751.22;5102197;28;20258;-65
2022/09/25 00:15:35;;;;;;;15.57;12.80;;;;;;;12.60;100.00;97759.69;5102049;28;20258;-63
2022/09/25 00:18:01;;;;;;;16.03;13.33;;;;;;;12.57;100.00;97755.47;5111333;28;20608;-64
2022/09/25 00:20:27;;;;;;;15.77;12.83;;;;;;;12.52;100.00;97754.16;5114791;28;20308;-64
2022/09/25 00:22:54;;;;;;;16.47;13.83;;;;;;;12.49;100.00;97751.78;5114683;28;20643;-64
2022/09/25 00:25:26;;;;;;;19.17;14.23;;;;;;;12.46;100.00;97758.16;5114630;28;20508;-64
2022/09/25 00:27:53;;;;;;;15.33;13.30;;;;;;;12.46;100.00;97746.75;5110661;28;20227;-64
2022/09/25 00:30:20;;;;;;;15.90;13.23;;;;;;;12.51;100.00;97752.47;5113304;28;20323;-64
2022/09/25 00:32:46;;;;;;;16.50;13.63;;;;;;;12.49;100.00;97747.31;5114507;28;20257;-64
2022/09/25 00:35:13;;;;;;;17.10;13.90;;;;;;;12.59;100.00;97747.41;5114478;28;20268;-64
2022/09/25 00:37:39;;;;;;;19.27;15.40;;;;;;;12.66;100.00;97737.97;5110796;28;20258;-64
2022/09/25 00:40:07;;;;;;;18.90;15.87;;;;;;;12.69;100.00;97740.34;5101630;28;20324;-64
2022/09/25 00:42:35;;;;;;;18.40;15.77;;;;;;;12.68;100.00;97731.56;5101617;28;20273;-64
2022/09/25 00:45:03;;;;;;;21.23;16.40;;;;;;;12.72;100.00;97732.16;5101608;28;20259;-64
2022/09/25 00:47:54;;;;;;;17.97;14.60;;;;;;;12.73;100.00;97728.53;5105153;28;20218;-64
2022/09/25 00:50:28;;;;;;;18.33;15.17;;;;;;;12.75;100.00;97729.22;5097897;28;20264;-64
2022/09/25 00:53:03;;;;;;;19.30;15.70;;;;;;;12.71;100.00;97717.22;5106088;28;20605;-64
2022/09/25 00:55:30;;;;;;;20.03;14.67;;;;;;;12.64;100.00;97713.38;5099766;28;20230;-64
2022/09/25 00:58:01;;;;;;;15.70;13.67;;;;;;;12.52;100.00;97709.09;5114239;28;20264;-64
2022/09/25 01:00:28;;;;;;;16.10;13.90;;;;;;;12.43;100.00;97709.88;5113859;28;20284;-64
2022/09/25 01:02:56;;;;;;;16.53;13.77;;;;;;;12.30;100.00;97703.91;5113195;28;20265;-64
2022/09/25 01:05:26;;;;;;;15.83;13.70;;;;;;;12.30;100.00;97709.22;5111323;28;20271;-64
2022/09/25 01:07:56;;;;;;;18.37;14.43;;;;;;;12.33;100.00;97704.50;5114143;28;20350;-64
2022/09/25 01:10:23;;;;;;;18.97;15.40;;;;;;;12.39;100.00;97704.00;5113841;28;20256;-64
2022/09/25 01:12:51;;;;;;;17.83;14.63;;;;;;;12.46;100.00;97704.34;5112311;28;20229;-64
2022/09/25 01:15:23;;;;;;;21.67;17.03;;;;;;;12.60;100.00;97704.00;5111901;28;20307;-64
2022/09/25 01:18:00;;;;;;;21.20;16.73;;;;;;;12.67;100.00;97703.38;5113730;28;20264;-64
2022/09/25 01:20:43;;;;;;;20.97;16.77;;;;;;;12.74;100.00;97699.22;5111826;28;20615;-64
2022/09/25 01:23:20;;;;;;;21.13;16.33;;;;;;;12.81;100.00;97711.00;5115362;28;20277;-64
2022/09/25 01:26:00;;;;;;;22.90;17.53;;;;;;;12.87;100.00;97699.00;5113477;28;20259;-64
2022/09/25 01:28:50;;;;;;;20.60;16.63;;;;;;;12.91;100.00;97697.78;5112766;28;20241;-64
2022/09/25 01:31:22;;;;;;;20.70;16.70;;;;;;;12.95;100.00;97696.56;5100901;28;20253;-64
2022/09/25 01:33:55;;;;;;;21.30;15.97;;;;;;;12.97;100.00;97700.78;5100742;28;20222;-64
2022/09/25 01:36:27;;;;;;;18.97;15.30;;;;;;;12.97;100.00;97702.59;5101792;28;20235;-64
2022/09/25 01:39:03;;;;;;;16.00;13.77;;;;;;;12.98;100.00;97706.94;5102476;28;20261;-64
2022/09/25 01:41:35;;;;;;;18.80;14.87;;;;;;;12.99;100.00;97704.16;5100837;28;20241;-64
2022/09/25 01:44:11;;;;;;;20.10;15.50;;;;;;;13.02;100.00;97697.75;5100976;28;20604;-66
2022/09/25 01:46:43;;;;;;;18.57;14.90;;;;;;;13.05;100.00;97705.44;5108660;28;20229;-64
2022/09/25 01:49:17;;;;;;;18.67;15.00;;;;;;;13.09;100.00;97715.66;5113471;28;20261;-64
2022/09/25 01:51:48;;;;;;;16.60;14.47;;;;;;;13.12;100.00;97703.94;5113363;28;20338;-64
2022/09/25 01:54:24;;;;;;;18.10;14.70;;;;;;;13.13;100.00;97713.56;5098378;28;20253;-64
2022/09/25 01:56:55;;;;;;;17.03;14.33;;;;;;;13.15;100.00;97709.00;5100681;28;20233;-64
2022/09/25 01:59:30;;;;;;;15.93;13.33;;;;;;;13.16;100.00;97708.00;5100565;28;20260;-64
2022/09/25 02:01:59;;;;;;;14.30;12.47;;;;;;;13.16;100.00;97715.97;5101658;28;20256;-64
2022/09/25 02:04:32;;;;;;;15.33;12.27;;;;;;;13.14;100.00;97712.63;5102359;28;20264;-64
2022/09/25 02:07:03;;;;;;;13.83;11.90;;;;;;;13.14;100.00;97708.13;5100563;28;20623;-65
2022/09/25 02:09:34;;;;;;;14.70;12.10;;;;;;;13.16;100.00;97713.31;5100603;28;20637;-65
2022/09/25 02:12:07;;;;;;;14.03;12.00;;;;;;;13.15;100.00;97714.28;5102772;28;20659;-64
2022/09/25 02:14:39;;;;;;;13.47;11.83;;;;;;;13.16;100.00;97715.97;5100016;28;20233;-64
2022/09/25 02:17:11;;;;;;;15.17;11.73;;;;;;;13.16;100.00;97715.97;5103733;28;20254;-64
2022/09/25 02:22:26;;;;;;;14.87;11.60;;;;;;;13.13;100.00;97713.56;5104353;28;20275;-64
2022/09/25 02:24:57;;;;;;;12.77;11.13;;;;;;;13.05;100.00;97708.09;5104271;28;20301;-64
2022/09/25 02:27:26;;;;;;;13.13;11.40;;;;;;;13.01;100.00;97712.00;5104251;28;20282;-64
2022/09/25 02:29:55;;;;;;;14.40;12.03;;;;;;;13.01;100.00;97709.34;5107130;28;20562;-65
2022/09/25 02:32:26;;;;;;;13.43;11.73;;;;;;;13.05;100.00;97708.09;5104085;28;20261;-65
2022/09/25 02:34:53;;;;;;;13.73;11.23;;;;;;;13.06;100.00;97712.41;5104031;28;20227;-64
2022/09/25 02:37:20;;;;;;;13.93;11.43;;;;;;;13.09;100.00;97714.81;5105026;28;20645;-64
2022/09/25 02:39:52;;;;;;;14.40;11.33;;;;;;;13.10;100.00;97706.75;5114789;28;20268;-63
2022/09/25 02:42:31;;;;;;;14.40;11.63;;;;;;;13.13;100.00;97710.91;5116722;28;20677;-63
2022/09/25 02:45:10;;;;;;;13.17;11.20;;;;;;;13.13;100.00;97710.91;5116662;28;20225;-64
2022/09/25 02:47:44;;;;;;;12.40;11.10;;;;;;;13.17;100.00;97712.34;5114035;28;20254;-63
2022/09/25 02:50:21;;;;;;;13.07;10.30;;;;;;;13.17;100.00;97704.38;5116811;28;20256;-63
2022/09/25 02:52:58;;;;;;;11.27;9.60;;;;;;;13.13;100.00;97701.16;5112965;28;20647;-63
2022/09/25 02:55:34;;;;;;;12.33;9.80;;;;;;;13.02;100.00;97703.06;5113225;28;20254;-63
2022/09/25 02:58:08;;;;;;;11.87;10.50;;;;;;;12.98;100.00;97704.28;5116614;28;20300;-65
2022/09/25 03:00:38;;;;;;;12.67;11.03;;;;;;;12.98;100.00;97702.47;5116079;28;20273;-65
2022/09/25 03:03:09;;;;;;;12.03;10.73;;;;;;;12.97;100.00;97697.31;5113534;28;20264;-64
2022/09/25 03:05:36;;;;;;;11.70;10.37;;;;;;;13.01;100.00;97690.78;5113755;28;20598;-65
2022/09/25 03:10:48;;;;;;;12.33;11.00;;;;;;;13.06;100.00;97700.00;5114676;28;20213;-65
2022/09/25 03:13:17;;;;;;;12.20;10.57;;;;;;;13.08;100.00;97705.19;5113731;28;20313;-64
2022/09/25 03:15:48;;;;;;;11.00;9.40;;;;;;;13.09;100.00;97693.59;5116082;28;20261;-64
2022/09/25 03:18:15;;;;;;;11.97;10.40;;;;;;;13.13;100.00;97705.59;5115977;28;20264;-66
2022/09/25 03:20:42;;;;;;;12.50;11.20;;;;;;;13.13;100.00;97705.59;5114078;28;20249;-65
2022/09/25 03:23:09;;;;;;;13.17;11.23;;;;;;;13.13;100.00;97705.59;5114200;28;20262;-64
2022/09/25 03:25:36;;;;;;;14.63;12.40;;;;;;;13.12;100.00;97699.47;5115876;28;20258;-65
2022/09/25 03:28:03;;;;;;;15.63;11.93;;;;;;;13.12;100.00;97698.63;5115688;28;20261;-64
2022/09/25 03:30:29;;;;;;;12.60;11.27;;;;;;;13.15;100.00;97709.00;5112331;28;20258;-64
2022/09/25 03:32:57;;;;;;;11.37;10.13;;;;;;;13.16;100.00;97710.66;5113500;28;20232;-64
2022/09/25 03:35:25;;;;;;;12.53;10.30;;;;;;;13.15;100.00;97703.69;5115643;28;20257;-64
2022/09/25 03:37:52;;;;;;;12.10;10.73;;;;;;;13.17;100.00;97701.72;5115664;28;20231;-64
2022/09/25 03:40:19;;;;;;;13.80;11.07;;;;;;;13.19;100.00;97710.38;5114202;28;20307;-64
2022/09/25 03:42:46;;;;;;;13.63;10.67;;;;;;;13.19;100.00;97711.25;5113413;28;20226;-64
2022/09/25 03:45:13;;;;;;;12.53;10.53;;;;;;;13.18;100.00;97712.22;5115511;28;20230;-64
2022/09/25 03:47:39;;;;;;;14.90;12.83;;;;;;;13.18;100.00;97709.56;5115437;28;20264;-64
2022/09/25 03:50:08;;;;;;;15.40;12.50;;;;;;;13.19;100.00;97705.94;5114365;28;20605;-64
2022/09/25 03:52:35;;;;;;;14.77;12.63;;;;;;;13.19;100.00;97705.09;5112708;28;20269;-64
2022/09/25 03:55:02;;;;;;;17.17;13.00;;;;;;;13.18;100.00;97708.72;5113515;28;20652;-65
2022/09/25 03:57:29;;;;;;;15.77;13.77;;;;;;;13.14;100.00;97707.31;5100716;28;20266;-65
2022/09/25 03:59:59;;;;;;;16.17;12.47;;;;;;;13.13;100.00;97703.81;5103436;28;20234;-64
2022/09/25 04:02:26;;;;;;;15.30;13.30;;;;;;;13.12;100.00;97704.78;5104320;28;20251;-64
2022/09/25 04:04:53;;;;;;;17.00;13.50;;;;;;;13.12;100.00;97706.59;5102311;28;20229;-65
2022/09/25 04:07:22;;;;;;;16.53;13.67;;;;;;;13.10;100.00;97697.94;5102248;28;20257;-64
2022/09/25 04:09:49;;;;;;;18.40;14.77;;;;;;;13.08;100.00;97706.00;5103518;28;20280;-65
2022/09/25 04:12:15;;;;;;;18.07;14.77;;;;;;;13.06;100.00;97694.69;5104191;28;20261;-65
2022/09/25 04:14:44;;;;;;;19.93;15.43;;;;;;;13.05;100.00;97697.47;5102076;28;20260;-65
2022/09/25 04:17:10;;;;;;;20.00;15.87;;;;;;;12.99;100.00;97696.19;5101937;28;20236;-64
2022/09/25 04:19:37;;;;;;;20.30;15.87;;;;;;;12.95;100.00;97699.22;5103102;28;20301;-64
2022/09/25 04:22:04;;;;;;;21.83;17.00;;;;;;;12.92;100.00;97702.13;5103117;28;20241;-65
2022/09/25 04:27:21;;;;;;;19.73;16.20;;;;;;;12.91;100.00;97705.75;5096305;28;20209;-65
2022/09/25 04:29:48;;;;;;;19.20;15.43;;;;;;;12.90;100.00;97699.59;5110939;28;20268;-65
2022/09/25 04:35:01;;;;;;;17.40;14.70;;;;;;;12.88;100.00;97706.00;5114710;28;20297;-64
2022/09/25 04:37:28;;;;;;;17.90;15.13;;;;;;;12.88;100.00;97708.66;5111988;28;20276;-65
2022/09/25 04:39:57;;;;;;;16.87;13.83;;;;;;;12.89;100.00;97703.22;5112770;28;20308;-65
2022/09/25 04:42:24;;;;;;;16.03;13.67;;;;;;;12.90;100.00;97704.06;5114514;28;20321;-64
2022/09/25 04:44:53;;;;;;;15.63;13.00;;;;;;;12.90;100.00;97704.06;5114302;28;20261;-66
2022/09/25 04:47:20;;;;;;;16.03;13.03;;;;;;;12.89;100.00;97705.06;5111422;28;20232;-65
2022/09/25 04:49:47;;;;;;;13.87;12.33;;;;;;;12.87;100.00;97709.63;5111636;28;20305;-65
2022/09/25 04:52:14;;;;;;;14.97;12.87;;;;;;;12.84;100.00;97705.41;5114179;28;20264;-64
2022/09/25 04:54:41;;;;;;;16.10;12.73;;;;;;;12.83;100.00;97708.22;5102477;28;20637;-64
2022/09/25 04:57:13;;;;;;;17.20;13.80;;;;;;;12.77;100.00;97708.75;5103841;28;20503;-65
2022/09/25 04:59:41;;;;;;;21.53;16.33;;;;;;;12.76;100.00;97701.72;5101386;28;20261;-64
2022/09/25 05:02:08;;;;;;;22.27;16.73;;;;;;;12.75;100.00;97700.06;5101286;28;20281;-64
2022/09/25 05:04:34;;;;;;;21.27;16.60;;;;;;;12.75;100.00;97700.06;5101312;28;20257;-64
2022/09/25 05:07:01;;;;;;;20.60;16.47;;;;;;;12.71;100.00;97693.34;5103905;28;20620;-64
2022/09/25 05:09:27;;;;;;;22.87;17.47;;;;;;;12.73;100.00;97702.84;5112075;28;20269;-64
2022/09/25 05:11:54;;;;;;;24.70;17.63;;;;;;;12.75;100.00;97695.59;5101115;28;20277;-64
2022/09/25 05:14:22;;;;;;;22.93;16.70;;;;;;;12.72;100.00;97697.69;5099072;28;20635;-66
2022/09/25 05:16:49;;;;;;;23.60;17.40;;;;;;;12.69;100.00;97690.81;5103542;28;20229;-65
2022/09/25 05:19:16;;;;;;;21.93;17.63;;;;;;;12.70;100.00;97691.63;5101715;28;20262;-65
2022/09/25 05:21:43;;;;;;;20.30;16.53;;;;;;;12.66;100.00;97703.50;5100717;28;20285;-65
2022/09/25 05:24:12;;;;;;;21.23;16.37;;;;;;;12.65;100.00;97704.47;5100907;28;20269;-65
2022/09/25 05:26:41;;;;;;;23.43;17.80;;;;;;;12.65;100.00;97696.53;5103328;28;20220;-65
2022/09/25 05:29:07;;;;;;;23.53;16.27;;;;;;;12.59;100.00;97705.00;5101473;28;20255;-65
2022/09/25 05:31:35;;;;;;;20.17;15.70;;;;;;;12.58;100.00;97703.28;5100561;28;20219;-64
2022/09/25 05:34:02;;;;;;;21.60;16.30;;;;;;;12.60;100.00;97702.19;5100571;28;20266;-64
2022/09/25 05:36:29;;;;;;;19.10;15.53;;;;;;;12.64;100.00;97702.75;5103054;28;20262;-64
2022/09/25 05:38:56;;;;;;;24.03;18.27;;;;;;;12.68;100.00;97706.84;5101684;28;20309;-65
2022/09/25 05:41:23;;;;;;;21.13;16.13;;;;;;;12.69;100.00;97705.88;5095140;28;20610;-64
2022/09/25 05:43:49;;;;;;;24.77;16.37;;;;;;;12.69;100.00;97711.19;5100763;28;20279;-64
2022/09/25 05:46:16;;;;;;;20.97;15.70;;;;;;;12.70;100.00;97711.06;5102848;28;20313;-64
2022/09/25 05:48:44;;;;;;;20.80;16.27;;;;;;;12.69;100.00;97706.72;5101922;28;20586;-70
2022/09/25 05:51:11;;;;;;;20.63;15.63;;;;;;;12.71;100.00;97710.09;5103606;28;20262;-63
2022/09/25 05:53:38;;;;;;;21.70;16.07;;;;;;;12.74;100.00;97706.34;5116516;28;20267;-63
2022/09/25 05:56:05;;;;;;;20.67;15.20;;;;;;;12.75;100.00;97710.66;5106221;28;20219;-63
2022/09/25 05:58:33;;;;;;;19.13;13.90;;;;;;;12.76;100.00;97707.03;5118862;28;20263;-63
2022/09/25 06:01:02;;;;;;;19.13;14.17;;;;;;;12.79;100.00;97707.66;5117879;28;20309;-63
2022/09/25 06:03:29;;;;;;;20.10;14.50;;;;;;;12.80;100.00;97709.31;5106696;28;20225;-63
2022/09/25 06:05:57;;;;;;;19.30;13.17;;;;;;;12.79;100.00;97709.44;5106945;28;20281;-63
2022/09/25 06:08:24;;;;;;;19.23;13.67;;;;;;;12.80;100.00;97711.13;5104688;28;20303;-64
2022/09/25 06:10:54;;;;;;;18.63;13.40;;;;;;;12.80;100.00;97719.06;5105069;28;20577;-63
2022/09/25 06:13:22;;;;;;;18.53;13.43;;;;;;;12.78;100.00;97708.59;5103842;28;20230;-63
2022/09/25 06:15:51;;;;;;;17.10;13.13;;;;;;;12.78;100.00;97715.72;5101665;28;20634;-64
2022/09/25 06:18:19;;;;;;;17.13;13.60;;;;;;;12.82;100.00;97706.50;5103679;28;20283;-63
2022/09/25 06:20:46;;;;;;;16.73;12.27;;;;;;;12.81;100.00;97710.13;5102945;28;20629;-64
2022/09/25 06:23:14;;;;;;;16.97;12.40;;;;;;;12.81;100.00;97712.78;5109765;28;20320;-63
2022/09/25 06:25:41;;;;;;;16.63;12.27;;;;;;;12.83;100.00;97713.53;5106445;28;20261;-64
2022/09/25 06:28:08;;;;;;;13.67;11.17;;;;;;;12.83;100.00;97709.03;5103374;28;20265;-63
2022/09/25 06:30:37;;;;;;;17.37;11.73;;;;;;;12.87;100.00;97710.47;5102592;28;20586;-64
2022/09/25 06:33:06;;;;;;;15.37;11.07;;;;;;;12.89;100.00;97718.31;5101168;28;20222;-63
2022/09/25 06:35:34;;;;;;;15.13;11.37;;;;;;;12.92;100.00;97718.03;5105944;28;20523;-63
2022/09/25 06:38:02;;;;;;;13.93;11.03;;;;;;;12.94;100.00;97721.38;5102885;28;20223;-63
2022/09/25 06:40:31;;;;;;;15.10;10.90;;;;;;;12.95;100.00;97715.13;5102486;28;20260;-64
2022/09/25 06:42:58;;;;;;;13.53;10.70;;;;;;;12.97;100.00;97721.19;5102520;28;20278;-63
2022/09/25 06:45:25;;;;;;;14.07;11.43;;;;;;;13.01;100.00;97725.25;5106022;28;20261;-64
2022/09/25 06:47:53;;;;;;;15.47;10.87;;;;;;;13.02;100.00;97719.81;5102628;28;20232;-63
2022/09/25 06:50:19;;;;;;;14.60;10.43;;;;;;;13.09;100.00;97717.47;5102652;28;20227;-64
2022/09/25 06:52:46;;;;;;;13.30;10.70;;;;;;;13.15;100.00;97724.91;5105471;28;20280;-65
2022/09/25 06:55:13;;;;;;;14.03;10.30;;;;;;;13.19;100.00;97723.66;5102356;28;20265;-64
2022/09/25 06:57:41;;;;;;;15.20;10.63;;;;;;;13.23;100.00;97722.44;5114985;28;20294;-64
2022/09/25 07:00:09;;;;;;;14.63;10.63;;;;;;;13.29;100.00;97719.25;5113324;28;20393;-64
2022/09/25 07:05:34;;;;;;;15.80;11.47;;;;;;;13.43;100.00;97726.84;5075328;28;20326;-65
2022/09/25 07:08:01;;;;;;;13.53;10.33;;;;;;;13.43;100.00;97725.03;5075453;28;20315;-65
2022/09/25 07:10:28;;;;;;;12.40;10.37;;;;;;;13.49;100.00;97731.63;5076415;28;20318;-65
2022/09/25 07:12:56;;;;;;;17.70;10.67;;;;;;;13.50;100.00;97731.50;5084824;28;20246;-64
2022/09/25 07:15:23;;;;;;;13.57;10.67;;;;;;;13.52;100.00;97736.69;5081911;28;20692;-64
2022/09/25 07:17:49;;;;;;;12.80;10.13;;;;;;;13.55;100.00;97736.41;5081782;28;20254;-64
2022/09/25 07:20:16;;;;;;;14.60;11.40;;;;;;;13.57;100.00;97742.44;5081612;28;20669;-64
2022/09/25 07:22:43;;;;;;;13.97;12.07;;;;;;;13.62;100.00;97745.53;5084305;28;20321;-63
2022/09/25 07:25:11;;;;;;;15.50;12.37;;;;;;;13.59;100.00;97738.69;5079633;28;20306;-64
2022/09/25 07:27:38;;;;;;;13.67;10.83;;;;;;;13.62;100.00;97735.75;5081528;28;20386;-64
2022/09/25 07:30:07;;;;;;;15.40;12.10;;;;;;;13.68;100.00;97739.69;5081498;28;20338;-64
2022/09/25 07:32:34;;;;;;;14.47;11.80;;;;;;;13.78;100.00;97735.22;5084301;28;20301;-64
2022/09/25 07:35:02;;;;;;;14.30;11.93;;;;;;;13.82;100.00;97736.66;5081753;28;20254;-64
2022/09/25 07:37:29;;;;;;;13.07;11.43;;;;;;;13.87;100.00;97739.75;5082335;28;20508;-64
2022/09/25 07:39:55;;;;;;;16.97;12.30;;;;;;;13.93;100.00;97736.53;5086249;28;20540;-64
2022/09/25 07:42:22;;;;;;;17.77;11.60;;;;;;;14.00;100.00;97732.38;5083838;28;20334;-64
2022/09/25 07:44:48;;;;;;;15.10;11.83;;;;;;;14.04;100.00;97734.59;5082027;28;20599;-64
2022/09/25 07:47:18;;;;;;;14.57;11.67;;;;;;;14.08;100.00;97737.81;5081207;28;20269;-65
2022/09/25 07:49:45;;;;;;;14.53;12.57;;;;;;;14.14;100.00;97737.28;5081244;28;20231;-65
2022/09/25 07:52:12;;;;;;;14.40;12.17;;;;;;;14.18;100.00;97741.34;5081982;28;20254;-64
2022/09/25 07:54:39;;;;;;;14.20;12.10;;;;;;;14.23;100.00;97739.16;5089906;28;20276;-64
2022/09/25 07:57:06;;;;;;;14.47;11.33;;;;;;;14.27;100.00;97735.22;5087937;28;20258;-64
2022/09/25 07:59:33;;;;;;;13.50;11.40;;;;;;;14.32;100.00;97739.16;5093470;28;20708;-64
2022/09/25 08:02:00;;;;;;;12.73;11.03;;;;;;;14.42;100.00;97739.19;5091071;28;20297;-64
2022/09/25 08:04:28;;;;;;;13.17;11.60;;;;;;;14.52;100.00;97747.97;5092323;28;20228;-64
2022/09/25 08:06:54;;;;;;;13.00;11.07;;;;;;;14.59;100.00;97743.78;5104961;28;20287;-64
2022/09/25 08:09:21;;;;;;;14.27;11.07;;;;;;;14.69;100.00;97745.47;5113937;28;20257;-64
2022/09/25 08:11:47;;;;;;;13.40;11.03;;;;;;;14.77;100.00;97758.91;5111830;28;20265;-64
2022/09/25 08:14:14;;;;;;;12.43;11.13;;;;;;;14.80;100.00;97753.28;5111701;28;20269;-64
2022/09/25 08:16:41;;;;;;;10.77;9.67;;;;;;;14.86;100.00;97754.56;5113683;28;20234;-64
2022/09/25 08:19:08;;;;;;;10.77;9.67;;;;;;;14.88;100.00;97749.94;5111904;28;20230;-64
2022/09/25 08:21:36;;;;;;;11.53;9.20;;;;;;;14.93;100.00;97753.00;5111668;28;20255;-64
2022/09/25 08:24:03;;;;;;;11.20;9.03;;;;;;;15.06;100.00;97748.22;5111148;28;20329;-64
2022/09/25 08:26:30;;;;;;;11.30;9.30;;;;;;;15.17;100.00;97751.59;5113344;28;20262;-64
2022/09/25 08:28:58;;;;;;;10.77;8.83;;;;;;;15.24;100.00;97751.81;5113279;28;20247;-65
2022/09/25 08:31:26;;;;;;;9.53;7.67;;;;;;;15.28;100.00;97747.91;5111628;28;20301;-65
2022/09/25 08:33:53;;;;;;;9.63;8.63;;;;;;;15.28;100.00;97748.72;5111667;28;20219;-64
2022/09/25 08:36:20;;;;;;;8.63;7.67;;;;;;;15.39;100.00;97743.28;5113199;28;20219;-64
2022/09/25 08:38:48;;;;;;;9.47;7.80;;;;;;;15.47;100.00;97747.88;5113420;28;20257;-64
2022/09/25 08:41:18;;;;;;;8.73;7.83;;;;;;;15.57;100.00;97754.84;5111550;28;20311;-64
2022/09/25 08:43:55;;;;;;;8.40;7.60;;;;;;;15.68;100.00;97741.34;5111653;28;20601;-64
2022/09/25 08:49:13;;;;;;;10.33;9.10;;;;;;;15.79;100.00;97741.16;5110865;28;20645;-64
2022/09/25 08:51:44;;;;;;;10.27;8.63;;;;;;;15.81;100.00;97738.31;5111837;28;20225;-64
2022/09/25 08:54:21;;;;;;;9.43;8.20;;;;;;;15.72;100.00;97725.91;5105348;28;20251;-64
2022/09/25 08:56:50;;;;;;;9.20;8.23;;;;;;;15.60;100.00;97727.06;5112720;28;20667;-64
2022/09/25 08:59:25;;;;;;;9.07;8.17;;;;;;;15.48;100.00;97728.25;5109755;28;20234;-64
2022/09/25 09:01:55;;;;;;;10.47;8.77;;;;;;;15.35;100.00;97733.91;5106694;28;20229;-64
2022/09/25 09:04:27;;;;;;;9.63;8.73;;;;;;;15.23;100.00;97732.38;5099890;28;20290;-64
2022/09/25 09:06:59;;;;;;;8.67;7.73;;;;;;;15.13;100.00;97728.03;5102045;28;20285;-64
2022/09/25 09:09:31;;;;;;;11.03;9.47;;;;;;;15.09;100.00;97727.47;5100210;28;20228;-63
2022/09/25 09:12:04;;;;;;;12.33;9.87;;;;;;;15.10;100.00;97736.31;5098083;28;20623;-64
2022/09/25 09:14:35;;;;;;;10.83;9.73;;;;;;;15.07;100.00;97732.13;5100053;28;20298;-64
2022/09/25 09:17:07;;;;;;;11.37;9.20;;;;;;;15.11;100.00;97738.00;5102216;28;20289;-64
2022/09/25 09:19:33;;;;;;;10.17;8.70;;;;;;;15.15;100.00;97742.88;5099733;28;20267;-64
2022/09/25 09:22:09;;;;;;;10.33;9.13;;;;;;;15.25;100.00;97741.03;5099155;28;20631;-64
2022/09/25 09:24:54;;;;;;;10.07;8.93;;;;;;;15.46;100.00;97740.88;5101951;28;20273;-64
2022/09/25 09:27:33;;;;;;;10.20;8.90;;;;;;;15.65;100.00;97735.47;5099547;28;20417;-64
2022/09/25 09:30:19;;;;;;;9.70;8.63;;;;;;;15.68;100.00;97729.84;5099599;28;20260;-64
2022/09/25 09:33:28;;;;;;;8.70;7.80;;;;;;;15.55;100.00;97729.34;5109707;28;20278;-64
2022/09/25 09:36:05;;;;;;;10.23;8.30;;;;;;;15.44;100.00;97727.69;5104344;28;20223;-64
2022/09/25 09:38:43;;;;;;;9.70;8.43;;;;;;;15.33;100.00;97729.72;5107101;28;20266;-64
2022/09/25 09:41:24;;;;;;;9.60;8.60;;;;;;;15.24;100.00;97735.84;5112232;28;20227;-64
2022/09/25 09:44:05;;;;;;;9.87;8.83;;;;;;;15.16;100.00;97727.75;5112146;28;20288;-64
2022/09/25 09:46:43;;;;;;;12.80;9.93;;;;;;;15.05;100.00;97736.75;5109567;28;20224;-64
2022/09/25 09:49:16;;;;;;;11.70;10.43;;;;;;;15.01;100.00;97729.16;5111949;28;20230;-64
2022/09/25 09:51:48;;;;;;;13.37;10.10;;;;;;;14.97;100.00;97727.81;5112211;28;20665;-64
2022/09/25 09:54:21;;;;;;;12.00;10.40;;;;;;;14.84;100.00;97732.59;5100562;28;20266;-64
2022/09/25 09:56:52;;;;;;;14.07;11.27;;;;;;;14.76;100.00;97732.44;5099435;28;20230;-64
2022/09/25 09:59:22;;;;;;;13.27;10.70;;;;;;;14.62;100.00;97738.19;5099320;28;20255;-64
2022/09/25 10:01:58;;;;;;;13.27;11.57;;;;;;;14.67;100.00;97742.09;5100132;28;20235;-64
2022/09/25 10:04:30;;;;;;;12.23;10.60;;;;;;;14.92;100.00;97736.19;5099621;28;20219;-63
2022/09/25 10:07:03;;;;;;;16.10;11.90;;;;;;;15.15;100.00;97736.72;5098632;28;20699;-63
2022/09/25 10:09:30;;;;;;;13.50;10.90;;;;;;;15.38;100.00;97730.09;5101862;28;20270;-63
2022/09/25 10:12:03;;;;;;;13.73;11.30;;;;;;;15.57;100.00;97727.38;5101205;28;20310;-63
2022/09/25 10:14:36;;;;;;;13.37;11.13;;;;;;;15.55;100.00;97721.34;5096544;28;20308;-62
2022/09/25 10:17:06;;;;;;;12.30;11.03;;;;;;;15.49;100.00;97729.91;5099240;28;20263;-63
2022/09/25 10:19:42;;;;;;;12.97;10.87;;;;;;;15.48;100.00;97726.44;5100547;28;20260;-63
2022/09/25 10:22:14;;;;;;;13.43;11.30;;;;;;;15.64;100.00;97718.63;5099997;28;20279;-63
2022/09/25 10:24:50;;;;;;;14.13;11.47;;;;;;;15.92;100.00;97719.47;5099130;28;20306;-62
2022/09/25 10:27:28;;;;;;;13.17;10.87;;;;;;;16.13;98.90;97717.41;5099226;28;20224;-63
2022/09/25 10:30:19;;;;;;;12.37;10.90;;;;;;;16.19;97.07;97710.47;5100693;28;20262;-62
2022/09/25 10:32:57;;;;;;;14.63;12.17;;;;;;;16.24;95.51;97718.00;5096177;28;20611;-63
2022/09/25 10:35:27;;;;;;;13.13;11.13;;;;;;;16.18;96.35;97716.81;5101327;28;20229;-63
2022/09/25 10:37:56;;;;;;;12.77;11.07;;;;;;;16.07;96.99;97720.66;5102373;28;20234;-62
2022/09/25 10:40:30;;;;;;;13.60;11.63;;;;;;;15.86;98.76;97714.75;5102676;28;20256;-62
2022/09/25 10:43:19;;;;;;;13.00;11.57;;;;;;;15.64;98.96;97723.16;5102624;28;20262;-63
2022/09/25 10:45:47;;;;;;;13.70;11.53;;;;;;;15.54;99.97;97722.34;5114848;28;20394;-62
2022/09/25 10:51:17;;;;;;;13.63;11.67;;;;;;;15.21;100.00;97725.50;5112073;28;20671;-63
2022/09/25 10:53:44;;;;;;;14.67;12.03;;;;;;;15.14;100.00;97732.38;5101683;28;20215;-62
2022/09/25 10:56:16;;;;;;;15.60;12.43;;;;;;;15.09;100.00;97739.97;5110636;28;20602;-62
2022/09/25 10:58:47;;;;;;;15.70;12.27;;;;;;;15.05;100.00;97720.78;5112997;28;20306;-63
2022/09/25 11:01:15;;;;;;;17.00;13.20;;;;;;;15.07;100.00;97723.28;5112434;28;20244;-65
2022/09/25 11:03:49;;;;;;;14.47;11.73;;;;;;;15.18;100.00;97721.31;5114944;28;20239;-65
2022/09/25 11:06:20;;;;;;;16.83;12.50;;;;;;;15.39;100.00;97721.16;5115145;28;20284;-64
2022/09/25 11:08:56;;;;;;;14.73;11.97;;;;;;;15.46;100.00;97735.56;5112110;28;20234;-65
2022/09/25 11:11:26;;;;;;;15.37;12.80;;;;;;;15.44;99.84;97738.34;5113801;28;20222;-65
2022/09/25 11:13:57;;;;;;;16.37;12.53;;;;;;;15.49;99.63;97737.91;5114282;28;20224;-64
2022/09/25 11:16:44;;;;;;;13.77;11.93;;;;;;;15.63;100.00;97732.13;5114229;28;20235;-64
2022/09/25 11:19:13;;;;;;;16.83;13.20;;;;;;;15.78;98.28;97735.97;5113185;28;20230;-64
2022/09/25 11:21:48;;;;;;;16.77;11.53;;;;;;;15.79;98.81;97732.31;5114077;28;20537;-64
2022/09/25 11:24:20;;;;;;;14.80;12.90;;;;;;;16.04;98.63;97733.28;5105858;28;20278;-63
2022/09/25 11:26:52;;;;;;;15.93;12.90;;;;;;;16.32;96.47;97728.75;5110251;28;20316;-63
2022/09/25 11:29:25;;;;;;;14.50;13.00;;;;;;;16.46;94.51;97733.63;5114506;28;20687;-63
2022/09/25 11:31:57;;;;;;;15.10;13.17;;;;;;;16.48;94.88;97732.47;5113949;28;20232;-62
2022/09/25 11:34:34;;;;;;;17.57;13.40;;;;;;;16.54;95.42;97726.53;5112055;28;20263;-62
2022/09/25 11:37:08;;;;;;;16.43;13.63;;;;;;;16.65;95.10;97723.59;5101660;28;20308;-62
2022/09/25 11:42:30;;;;;;;17.70;12.80;;;;;;;16.85;91.93;97735.81;5105041;28;20218;-62
2022/09/25 11:45:07;;;;;;;16.70;12.90;;;;;;;16.81;91.49;97723.75;5101433;28;20253;-63
2022/09/25 11:47:41;;;;;;;15.47;13.13;;;;;;;16.77;90.60;97727.72;5100642;28;20229;-63